Time;durP1;ratioP1;P1;durP2;ratioP2;P2;SDS_P1;SDS_P2;PMS_P1;PMS_P2;Temp;Humidity;BMP_temperature;BMP_pressure;BME280_temperature;BME280_humidity;BME280_pressure;Samples;Min_cycle;Max_cycle;Signal;HPM_P1;HPM_P2
2021/09/16 00:00:10;;;;;;;13.13;11.90;;;17.60;99.90;;;;;;5034534;28;20185;-83
2021/09/16 00:02:36;;;;;;;14.43;12.93;;;17.60;99.90;;;;;;5023195;28;20241;-85
2021/09/16 00:05:02;;;;;;;13.30;12.00;;;17.60;99.90;;;;;;5032771;28;20235;-84
2021/09/16 00:07:28;;;;;;;13.27;11.53;;;17.60;99.90;;;;;;5026138;28;20182;-84
2021/09/16 00:09:53;;;;;;;14.97;10.63;;;17.60;99.90;;;;;;5021798;28;20213;-85
2021/09/16 00:12:19;;;;;;;14.80;12.53;;;17.60;99.90;;;;;;5022655;28;20231;-85
2021/09/16 00:14:44;;;;;;;14.07;12.00;;;17.50;99.90;;;;;;5015393;28;20202;-85
2021/09/16 00:17:10;;;;;;;16.63;14.73;;;17.50;99.90;;;;;;5021265;28;20654;-85
2021/09/16 00:19:36;;;;;;;16.03;14.43;;;17.50;99.90;;;;;;5024498;28;20700;-85
2021/09/16 00:22:01;;;;;;;15.33;13.47;;;17.60;99.90;;;;;;5042377;28;20202;-85
2021/09/16 00:24:27;;;;;;;16.33;14.13;;;17.60;99.90;;;;;;5030175;28;20218;-85
2021/09/16 00:26:53;;;;;;;16.53;13.97;;;17.60;99.90;;;;;;5022171;28;20184;-85
2021/09/16 00:29:18;;;;;;;15.13;13.70;;;17.60;99.90;;;;;;5023448;28;20582;-85
2021/09/16 00:31:44;;;;;;;17.90;13.03;;;17.60;99.90;;;;;;5022639;28;20631;-85
2021/09/16 00:34:10;;;;;;;14.10;12.80;;;17.60;99.90;;;;;;5032000;28;20682;-85
2021/09/16 00:36:35;;;;;;;13.07;11.80;;;17.50;99.90;;;;;;5027924;28;20167;-84
2021/09/16 00:39:01;;;;;;;15.17;13.77;;;17.50;99.90;;;;;;5023023;28;20171;-84
2021/09/16 00:41:28;;;;;;;14.13;12.30;;;17.50;99.90;;;;;;5035707;28;20184;-85
2021/09/16 00:43:58;;;;;;;14.73;13.43;;;17.50;99.90;;;;;;5040863;28;20202;-85
2021/09/16 00:46:24;;;;;;;15.70;14.20;;;17.50;99.90;;;;;;5030859;28;20244;-85
2021/09/16 00:48:49;;;;;;;14.10;12.90;;;17.50;99.90;;;;;;5026183;28;20171;-85
2021/09/16 00:51:15;;;;;;;14.03;12.87;;;17.60;99.90;;;;;;5032879;28;20234;-85
2021/09/16 00:53:41;;;;;;;14.37;13.07;;;17.50;99.90;;;;;;5036297;28;20688;-84
2021/09/16 00:56:08;;;;;;;15.23;13.93;;;17.60;99.90;;;;;;5025974;28;20186;-85
2021/09/16 00:58:38;;;;;;;15.03;13.83;;;17.60;99.90;;;;;;5025376;28;20178;-85
2021/09/16 01:01:05;;;;;;;15.13;13.83;;;17.60;99.90;;;;;;5025099;28;20616;-85
2021/09/16 01:03:31;;;;;;;14.73;13.47;;;17.50;99.90;;;;;;5038684;28;20198;-85
2021/09/16 01:05:56;;;;;;;15.33;13.93;;;17.60;99.90;;;;;;5041266;28;20187;-85
2021/09/16 01:08:22;;;;;;;16.70;14.87;;;17.60;99.90;;;;;;5026084;28;20206;-85
2021/09/16 01:10:49;;;;;;;19.27;17.13;;;17.60;99.90;;;;;;5026223;28;20286;-85
2021/09/16 01:13:16;;;;;;;18.73;16.90;;;17.50;99.90;;;;;;5034321;28;20633;-85
2021/09/16 01:15:43;;;;;;;18.00;16.20;;;17.50;99.90;;;;;;5030213;28;20182;-84
2021/09/16 01:18:08;;;;;;;17.40;15.73;;;17.50;99.90;;;;;;5024170;28;20175;-85
2021/09/16 01:20:34;;;;;;;18.80;16.97;;;17.60;99.90;;;;;;5025612;28;20205;-85
2021/09/16 01:23:00;;;;;;;19.30;17.40;;;17.60;99.90;;;;;;5024303;28;20236;-85
2021/09/16 01:25:27;;;;;;;18.93;16.97;;;17.60;99.90;;;;;;5024548;28;20215;-84
2021/09/16 01:27:54;;;;;;;18.00;16.17;;;17.50;99.90;;;;;;5025433;28;20179;-85
2021/09/16 01:30:21;;;;;;;18.67;16.67;;;17.50;99.90;;;;;;5039453;28;20279;-84
2021/09/16 01:32:48;;;;;;;24.03;19.73;;;17.40;99.90;;;;;;5037022;28;20194;-84
2021/09/16 01:35:14;;;;;;;26.67;19.67;;;17.40;99.90;;;;;;5027202;28;20198;-84
2021/09/16 01:37:40;;;;;;;23.77;19.43;;;17.40;99.90;;;;;;5024064;28;20223;-83
2021/09/16 01:40:06;;;;;;;24.00;18.80;;;17.50;99.90;;;;;;5025053;28;20613;-84
2021/09/16 01:42:32;;;;;;;24.83;19.80;;;17.50;99.90;;;;;;5021883;28;20226;-84
2021/09/16 01:44:57;;;;;;;23.83;19.70;;;17.40;99.90;;;;;;5023329;28;20568;-84
2021/09/16 01:47:23;;;;;;;25.70;20.63;;;17.50;99.90;;;;;;5009306;28;20182;-84
2021/09/16 01:49:49;;;;;;;22.40;19.20;;;17.60;99.90;;;;;;5036908;28;20201;-85
2021/09/16 01:52:16;;;;;;;26.83;20.80;;;17.60;99.90;;;;;;5025817;28;20257;-85
2021/09/16 01:54:43;;;;;;;25.17;20.20;;;17.60;99.90;;;;;;5026278;28;20214;-84
2021/09/16 01:57:08;;;;;;;25.70;19.83;;;17.60;99.90;;;;;;5026047;28;20254;-85
2021/09/16 01:59:34;;;;;;;25.80;20.53;;;17.60;99.90;;;;;;5025003;28;20660;-85
2021/09/16 02:02:00;;;;;;;25.23;20.53;;;17.60;99.90;;;;;;5024734;28;20542;-84
2021/09/16 02:04:26;;;;;;;22.77;19.00;;;17.60;99.90;;;;;;5025020;28;20197;-85
2021/09/16 02:06:51;;;;;;;22.37;19.37;;;17.60;99.90;;;;;;5023871;28;20197;-84
2021/09/16 02:09:17;;;;;;;23.10;19.03;;;17.70;99.90;;;;;;5024049;28;20587;-85
2021/09/16 02:11:42;;;;;;;23.97;19.20;;;17.70;99.90;;;;;;5023877;28;20204;-85
2021/09/16 02:14:08;;;;;;;21.90;18.10;;;17.70;99.90;;;;;;5039025;28;20629;-85
2021/09/16 02:16:34;;;;;;;24.63;19.17;;;17.60;99.90;;;;;;5023961;28;20278;-85
2021/09/16 02:18:59;;;;;;;24.40;19.73;;;17.50;99.90;;;;;;5025155;28;20257;-84
2021/09/16 02:21:25;;;;;;;23.47;19.37;;;17.60;99.90;;;;;;5024771;28;20201;-84
2021/09/16 02:23:51;;;;;;;28.40;20.83;;;17.60;99.90;;;;;;5019808;28;20217;-84
2021/09/16 02:26:16;;;;;;;22.17;19.60;;;17.60;99.90;;;;;;5017880;28;20281;-85
2021/09/16 02:28:42;;;;;;;21.53;19.13;;;17.60;99.90;;;;;;5014506;28;20194;-85
2021/09/16 02:31:08;;;;;;;23.83;20.70;;;17.60;99.90;;;;;;5015536;28;20254;-85
2021/09/16 02:33:33;;;;;;;23.50;19.83;;;17.60;99.90;;;;;;5020699;28;20321;-85
2021/09/16 02:36:00;;;;;;;28.17;20.60;;;17.70;99.90;;;;;;5022311;28;20180;-85
2021/09/16 02:38:26;;;;;;;23.50;18.07;;;17.70;99.90;;;;;;5022578;28;20175;-85
2021/09/16 02:40:53;;;;;;;21.50;18.50;;;17.70;99.90;;;;;;5031652;28;20180;-85
2021/09/16 02:43:19;;;;;;;21.60;18.43;;;17.70;99.90;;;;;;5027553;28;20179;-85
2021/09/16 02:45:44;;;;;;;29.50;19.10;;;17.70;99.90;;;;;;5022165;28;20179;-85
2021/09/16 02:48:11;;;;;;;24.47;19.17;;;17.70;99.90;;;;;;5023842;28;20238;-85
2021/09/16 02:50:37;;;;;;;21.47;18.53;;;17.70;99.90;;;;;;5023109;28;20194;-85
2021/09/16 02:53:03;;;;;;;23.60;19.47;;;17.60;99.90;;;;;;5021496;28;20174;-85
2021/09/16 02:55:28;;;;;;;22.33;18.40;;;17.60;99.90;;;;;;5022886;28;20215;-85
2021/09/16 02:57:54;;;;;;;27.57;22.53;;;17.70;99.90;;;;;;5021527;28;20181;-85
2021/09/16 03:00:20;;;;;;;26.60;20.43;;;17.70;99.90;;;;;;5023914;28;20178;-85
2021/09/16 03:02:46;;;;;;;22.73;19.73;;;17.70;99.90;;;;;;5022608;28;20186;-85
2021/09/16 03:05:11;;;;;;;25.40;18.93;;;17.70;99.90;;;;;;5023658;28;20737;-84
2021/09/16 03:07:37;;;;;;;23.97;20.00;;;17.80;99.90;;;;;;5024311;28;20238;-85
2021/09/16 03:10:04;;;;;;;21.53;18.37;;;17.80;99.90;;;;;;5022921;28;20575;-85
2021/09/16 03:12:30;;;;;;;32.37;19.77;;;17.80;99.90;;;;;;5037764;28;20171;-85
2021/09/16 03:14:55;;;;;;;23.97;18.70;;;17.80;99.90;;;;;;5031420;28;20224;-85
2021/09/16 03:17:21;;;;;;;22.03;18.60;;;17.70;99.90;;;;;;5028877;28;20594;-85
2021/09/16 03:19:47;;;;;;;20.37;17.57;;;17.70;99.90;;;;;;5037607;28;20194;-85
2021/09/16 03:22:12;;;;;;;26.23;18.83;;;17.70;99.90;;;;;;5025069;28;20553;-85
2021/09/16 03:24:38;;;;;;;21.40;18.03;;;17.70;99.90;;;;;;5023589;28;20227;-85
2021/09/16 03:27:04;;;;;;;20.33;18.07;;;17.70;99.90;;;;;;5022653;28;20186;-85
2021/09/16 03:29:30;;;;;;;23.60;19.43;;;17.70;99.90;;;;;;5023534;28;20186;-83
2021/09/16 03:31:55;;;;;;;23.70;18.87;;;17.70;99.90;;;;;;5020812;28;20178;-84
2021/09/16 03:34:21;;;;;;;19.30;17.40;;;17.70;99.90;;;;;;5021935;28;20198;-84
2021/09/16 03:36:47;;;;;;;20.77;18.63;;;17.70;99.90;;;;;;5009252;28;20235;-85
2021/09/16 03:39:13;;;;;;;23.97;19.60;;;17.70;99.90;;;;;;5032645;28;20186;-85
2021/09/16 03:41:39;;;;;;;26.67;20.13;;;17.60;99.90;;;;;;5013135;28;20187;-83
2021/09/16 03:44:04;;;;;;;23.10;20.60;;;17.70;99.90;;;;;;5022020;28;20195;-84
2021/09/16 03:46:30;;;;;;;22.20;19.90;;;17.70;99.90;;;;;;5022841;28;20189;-85
2021/09/16 03:48:56;;;;;;;25.27;22.43;;;17.70;99.90;;;;;;5019544;28;20190;-84
2021/09/16 03:51:24;;;;;;;28.93;22.23;;;17.70;99.90;;;;;;5010049;28;20341;-84
2021/09/16 03:53:50;;;;;;;34.37;24.33;;;17.70;99.90;;;;;;5021150;28;20193;-85
2021/09/16 03:56:15;;;;;;;29.33;22.67;;;17.70;99.90;;;;;;5020756;28;20171;-85
2021/09/16 03:58:41;;;;;;;23.23;20.70;;;17.70;99.90;;;;;;5008451;28;20631;-85
2021/09/16 04:01:08;;;;;;;25.20;20.33;;;17.70;99.90;;;;;;5019130;28;20218;-85
2021/09/16 04:03:34;;;;;;;20.60;18.57;;;17.70;99.90;;;;;;5010833;28;20263;-84
2021/09/16 04:05:59;;;;;;;21.80;19.60;;;17.70;99.90;;;;;;5011527;28;20214;-84
2021/09/16 04:08:25;;;;;;;24.67;19.80;;;17.70;99.90;;;;;;5019411;28;20182;-84
2021/09/16 04:10:51;;;;;;;22.10;19.80;;;17.70;99.90;;;;;;5020274;28;20191;-84
2021/09/16 04:13:16;;;;;;;20.67;18.50;;;17.80;99.90;;;;;;5022726;28;20255;-85
2021/09/16 04:15:42;;;;;;;22.60;18.83;;;17.80;99.90;;;;;;5009472;28;20176;-85
2021/09/16 04:18:08;;;;;;;20.50;18.33;;;17.80;99.90;;;;;;5022287;28;20182;-85
2021/09/16 04:20:33;;;;;;;21.17;18.47;;;17.80;99.90;;;;;;5021509;28;20209;-85
2021/09/16 04:22:59;;;;;;;20.43;18.37;;;17.80;99.90;;;;;;5021223;28;20581;-85
2021/09/16 04:25:25;;;;;;;19.80;17.80;;;17.70;99.90;;;;;;5021476;28;20218;-85
2021/09/16 04:27:51;;;;;;;24.83;20.07;;;17.70;99.90;;;;;;5023057;28;20194;-84
2021/09/16 04:30:16;;;;;;;20.47;18.37;;;17.80;99.90;;;;;;5025507;28;20214;-85
2021/09/16 04:32:42;;;;;;;23.33;19.10;;;17.70;99.90;;;;;;5026087;28;20237;-85
2021/09/16 04:35:09;;;;;;;20.77;18.20;;;17.70;99.90;;;;;;5026315;28;20191;-83
2021/09/16 04:37:35;;;;;;;25.30;20.07;;;17.70;99.90;;;;;;5024447;28;20182;-83
2021/09/16 04:40:00;;;;;;;20.73;18.63;;;17.70;99.90;;;;;;5025063;28;20183;-84
2021/09/16 04:42:26;;;;;;;20.80;18.70;;;17.70;99.90;;;;;;5023996;28;20244;-84
2021/09/16 04:44:52;;;;;;;21.27;17.93;;;17.70;99.90;;;;;;5027077;28;20202;-84
2021/09/16 04:47:18;;;;;;;19.97;17.43;;;17.70;99.90;;;;;;5024736;28;20537;-84
2021/09/16 04:49:44;;;;;;;19.67;17.57;;;17.80;99.90;;;;;;5023522;28;20193;-83
2021/09/16 04:52:09;;;;;;;19.70;17.73;;;17.80;99.90;;;;;;5010072;28;20178;-84
2021/09/16 04:54:35;;;;;;;18.40;16.67;;;17.80;99.90;;;;;;5020527;28;20206;-83
2021/09/16 04:57:01;;;;;;;18.33;16.23;;;17.80;99.90;;;;;;5022760;28;20179;-84
2021/09/16 04:59:26;;;;;;;20.83;17.50;;;17.80;99.90;;;;;;5021049;28;20167;-84
2021/09/16 05:01:52;;;;;;;19.70;17.70;;;17.90;99.90;;;;;;5019708;28;20183;-83
2021/09/16 05:04:17;;;;;;;18.83;16.80;;;17.90;99.90;;;;;;5022637;28;20205;-84
2021/09/16 05:06:43;;;;;;;21.47;17.40;;;17.90;99.90;;;;;;5021784;28;20270;-84
2021/09/16 05:09:09;;;;;;;20.37;18.07;;;17.90;99.90;;;;;;5036789;28;20182;-80
2021/09/16 05:11:40;;;;;;;22.63;18.83;;;17.90;99.90;;;;;;5021842;28;20230;-83
2021/09/16 05:14:07;;;;;;;20.37;18.27;;;17.90;99.90;;;;;;5021546;28;20286;-83
2021/09/16 05:16:32;;;;;;;18.60;16.73;;;17.90;99.90;;;;;;5021025;28;20640;-84
2021/09/16 05:18:58;;;;;;;20.10;17.93;;;17.90;99.90;;;;;;5022845;28;20174;-83
2021/09/16 05:21:24;;;;;;;19.63;17.53;;;17.90;99.90;;;;;;5022373;28;20237;-83
2021/09/16 05:23:50;;;;;;;20.50;18.37;;;18.00;99.90;;;;;;5022560;28;20296;-84
2021/09/16 05:26:16;;;;;;;19.50;17.53;;;17.90;99.90;;;;;;5071175;23;20231;-79
2021/09/16 05:28:43;;;;;;;21.97;19.63;;;18.00;99.90;;;;;;5056453;28;20173;-79
2021/09/16 05:31:09;;;;;;;23.33;18.87;;;18.00;99.90;;;;;;5056979;28;20197;-79
2021/09/16 05:33:34;;;;;;;21.93;19.63;;;18.00;99.90;;;;;;5056717;28;20170;-79
2021/09/16 05:36:02;;;;;;;21.87;19.67;;;18.00;99.90;;;;;;5044690;28;20198;-79
2021/09/16 05:38:28;;;;;;;21.53;18.30;;;18.00;99.90;;;;;;5035479;28;20195;-80
2021/09/16 05:40:55;;;;;;;21.83;18.27;;;18.00;99.90;;;;;;5036717;28;20206;-79
2021/09/16 05:43:20;;;;;;;21.40;18.13;;;18.00;99.90;;;;;;5036932;28;20247;-80
2021/09/16 05:45:46;;;;;;;25.20;20.93;;;18.00;99.90;;;;;;5037501;28;20287;-80
2021/09/16 05:48:12;;;;;;;25.27;20.97;;;18.00;99.90;;;;;;5036829;28;20186;-79
2021/09/16 05:50:37;;;;;;;23.57;19.90;;;18.00;99.90;;;;;;5035503;28;20209;-80
2021/09/16 05:53:03;;;;;;;21.57;17.97;;;18.00;99.90;;;;;;5035992;28;20236;-79
2021/09/16 05:55:29;;;;;;;22.13;19.53;;;18.00;99.90;;;;;;5052265;28;20252;-80
2021/09/16 05:57:55;;;;;;;20.57;18.07;;;18.00;99.90;;;;;;5038337;28;20177;-80
2021/09/16 06:00:23;;;;;;;23.97;19.43;;;18.00;99.90;;;;;;5037450;28;20182;-80
2021/09/16 06:02:49;;;;;;;23.73;19.03;;;18.00;99.90;;;;;;5036116;28;20572;-80
2021/09/16 06:05:15;;;;;;;22.03;19.20;;;18.00;99.90;;;;;;5035170;28;20198;-81
2021/09/16 06:07:41;;;;;;;21.60;18.53;;;18.10;99.90;;;;;;5034566;28;20193;-79
2021/09/16 06:10:07;;;;;;;22.50;18.07;;;18.10;99.90;;;;;;5036083;28;20212;-78
2021/09/16 06:12:33;;;;;;;23.07;19.57;;;18.00;99.90;;;;;;5036325;28;20182;-80
2021/09/16 06:14:59;;;;;;;19.13;17.23;;;18.10;99.90;;;;;;5032532;28;20205;-80
2021/09/16 06:17:25;;;;;;;19.77;17.77;;;18.10;99.90;;;;;;5035816;28;20633;-80
2021/09/16 06:19:51;;;;;;;24.37;18.57;;;18.10;99.90;;;;;;5031238;28;20181;-79
2021/09/16 06:22:18;;;;;;;18.57;16.63;;;18.10;99.90;;;;;;5046299;28;20182;-79
2021/09/16 06:24:43;;;;;;;18.03;16.23;;;18.10;99.90;;;;;;5032869;28;20547;-79
2021/09/16 06:27:09;;;;;;;18.17;16.20;;;18.10;99.90;;;;;;5035165;28;20277;-80
2021/09/16 06:29:35;;;;;;;17.17;15.53;;;18.10;99.90;;;;;;5034921;28;20606;-80
2021/09/16 06:32:00;;;;;;;17.17;15.53;;;18.10;99.90;;;;;;5033396;28;20251;-80
2021/09/16 06:34:26;;;;;;;17.20;15.60;;;18.10;99.90;;;;;;5035379;28;20638;-80
2021/09/16 06:36:52;;;;;;;15.63;14.33;;;18.10;99.90;;;;;;5032585;28;20542;-79
2021/09/16 06:39:18;;;;;;;15.07;13.57;;;18.20;99.90;;;;;;5033531;28;20177;-80
2021/09/16 06:41:44;;;;;;;16.73;15.10;;;18.20;99.90;;;;;;5035317;28;20257;-80
2021/09/16 06:44:10;;;;;;;16.23;14.70;;;18.20;99.90;;;;;;5032798;28;20273;-78
2021/09/16 06:46:36;;;;;;;15.57;14.17;;;18.20;99.90;;;;;;5032531;28;20346;-80
2021/09/16 06:49:02;;;;;;;15.33;13.93;;;18.30;99.90;;;;;;5035530;28;20227;-80
2021/09/16 06:51:27;;;;;;;14.47;13.10;;;18.30;99.90;;;;;;5032923;28;20209;-80
2021/09/16 06:53:54;;;;;;;14.20;12.80;;;18.20;99.90;;;;;;5016045;28;20244;-80
2021/09/16 06:56:20;;;;;;;13.90;12.60;;;18.20;99.90;;;;;;5025649;28;20204;-80
2021/09/16 06:58:45;;;;;;;15.10;13.63;;;18.20;99.90;;;;;;5032950;28;20178;-81
2021/09/16 07:01:11;;;;;;;14.23;12.80;;;18.20;99.90;;;;;;5032732;28;20182;-81
2021/09/16 07:03:37;;;;;;;13.47;12.17;;;18.20;99.90;;;;;;5033765;28;20204;-80
2021/09/16 07:06:02;;;;;;;12.20;11.20;;;18.20;99.90;;;;;;5020853;28;20747;-81
2021/09/16 07:08:28;;;;;;;11.80;10.80;;;18.20;99.90;;;;;;5034900;28;20676;-80
2021/09/16 07:10:54;;;;;;;11.17;10.07;;;18.20;99.90;;;;;;5031378;28;20206;-80
2021/09/16 07:13:19;;;;;;;12.33;11.13;;;18.20;99.90;;;;;;5031577;28;20193;-80
2021/09/16 07:15:45;;;;;;;13.47;10.87;;;18.20;99.90;;;;;;5032650;28;20235;-79
2021/09/16 07:18:11;;;;;;;12.60;11.40;;;18.30;99.90;;;;;;5031323;28;20209;-80
2021/09/16 07:20:36;;;;;;;12.23;11.23;;;18.30;99.90;;;;;;5031038;28;20186;-80
2021/09/16 07:23:02;;;;;;;12.03;10.93;;;18.30;99.90;;;;;;5032559;28;20183;-80
2021/09/16 07:25:28;;;;;;;13.17;11.67;;;18.30;99.90;;;;;;5038284;28;20299;-80
2021/09/16 07:27:53;;;;;;;11.50;10.50;;;18.30;99.90;;;;;;5030961;28;20540;-80
2021/09/16 07:30:19;;;;;;;12.70;11.53;;;18.30;99.90;;;;;;5034088;28;20220;-80
2021/09/16 07:32:45;;;;;;;11.27;10.37;;;18.40;99.90;;;;;;5034344;28;20179;-80
2021/09/16 07:35:11;;;;;;;10.70;9.80;;;18.40;99.90;;;;;;5020803;28;20212;-79
2021/09/16 07:37:37;;;;;;;9.03;8.27;;;18.50;99.90;;;;;;5030802;28;20182;-80
2021/09/16 07:40:04;;;;;;;9.83;8.93;;;18.40;99.90;;;;;;5028610;28;20289;-80
2021/09/16 07:42:29;;;;;;;8.87;8.07;;;18.50;99.90;;;;;;5032432;28;20182;-79
2021/09/16 07:44:55;;;;;;;7.40;6.80;;;18.50;99.90;;;;;;5032799;28;20677;-80
2021/09/16 07:47:21;;;;;;;7.33;6.63;;;18.60;99.90;;;;;;5037635;28;20235;-79
2021/09/16 07:49:47;;;;;;;6.30;5.90;;;18.60;99.90;;;;;;5033891;28;20197;-80
2021/09/16 07:52:14;;;;;;;6.87;5.33;;;18.60;99.90;;;;;;5033908;28;20572;-80
2021/09/16 07:54:40;;;;;;;5.53;4.90;;;18.60;99.90;;;;;;5031211;28;20187;-80
2021/09/16 07:57:06;;;;;;;5.57;5.17;;;18.60;99.90;;;;;;5030426;28;20190;-80
2021/09/16 07:59:32;;;;;;;5.17;4.80;;;18.60;99.90;;;;;;5032216;28;20178;-80
2021/09/16 08:01:57;;;;;;;5.10;4.70;;;18.60;99.90;;;;;;5033439;28;20200;-79
2021/09/16 08:04:23;;;;;;;4.73;4.40;;;18.50;99.90;;;;;;5031702;28;20290;-80
2021/09/16 08:06:49;;;;;;;5.57;5.17;;;18.60;99.90;;;;;;5035312;28;20684;-80
2021/09/16 08:09:14;;;;;;;4.77;4.37;;;18.60;99.90;;;;;;5039519;28;20185;-80
2021/09/16 08:11:40;;;;;;;4.57;4.27;;;18.70;99.90;;;;;;5037874;28;20204;-80
2021/09/16 08:14:07;;;;;;;5.27;3.97;;;18.70;99.90;;;;;;5037011;28;20272;-79
2021/09/16 08:16:34;;;;;;;4.10;3.70;;;18.70;99.90;;;;;;5036588;28;20193;-80
2021/09/16 08:19:00;;;;;;;4.33;3.93;;;18.80;99.90;;;;;;5034176;28;20183;-80
2021/09/16 08:21:27;;;;;;;3.90;3.60;;;18.70;99.90;;;;;;5035725;28;20217;-78
2021/09/16 08:23:53;;;;;;;4.40;4.00;;;18.70;99.90;;;;;;5034813;28;20186;-80
2021/09/16 08:26:19;;;;;;;4.60;4.20;;;18.70;99.90;;;;;;5037456;28;20225;-80
2021/09/16 08:28:44;;;;;;;4.37;3.97;;;18.70;99.90;;;;;;5037508;28;20182;-79
2021/09/16 08:31:10;;;;;;;4.37;3.97;;;18.70;99.90;;;;;;5035392;28;20199;-80
2021/09/16 08:33:36;;;;;;;4.20;3.63;;;18.80;99.90;;;;;;5037572;28;20177;-80
2021/09/16 08:36:03;;;;;;;4.80;4.13;;;18.80;99.90;;;;;;5032772;28;20236;-79
2021/09/16 08:38:29;;;;;;;4.83;3.70;;;18.90;99.90;;;;;;5037575;28;20233;-80
2021/09/16 08:40:54;;;;;;;4.87;3.83;;;18.90;99.90;;;;;;5035732;28;20568;-79
2021/09/16 08:43:26;;;;;;;4.90;4.40;;;18.90;99.90;;;;;;5036025;28;20197;-79
2021/09/16 08:45:52;;;;;;;4.13;3.77;;;18.90;99.90;;;;;;5037303;28;20729;-79
2021/09/16 08:48:17;;;;;;;6.07;4.10;;;19.00;99.90;;;;;;5032847;28;20269;-79
2021/09/16 08:50:43;;;;;;;6.87;5.00;;;19.00;99.90;;;;;;5035869;28;20336;-79
2021/09/16 08:53:09;;;;;;;4.10;3.80;;;19.00;99.90;;;;;;5047939;28;20190;-78
2021/09/16 08:55:35;;;;;;;4.90;3.53;;;19.10;99.90;;;;;;5029525;28;20194;-79
2021/09/16 08:58:03;;;;;;;4.20;3.80;;;19.00;99.90;;;;;;5035987;28;20590;-79
2021/09/16 09:00:31;;;;;;;5.90;3.53;;;19.00;99.90;;;;;;5037030;28;20248;-80
2021/09/16 09:02:58;;;;;;;4.13;3.70;;;19.00;99.90;;;;;;5037352;28;20265;-79
2021/09/16 09:05:26;;;;;;;4.77;4.23;;;19.00;99.90;;;;;;5037472;28;20205;-79
2021/09/16 09:07:54;;;;;;;4.47;4.07;;;19.10;99.90;;;;;;5034368;28;20597;-79
2021/09/16 09:10:39;;;;;;;5.80;3.80;;;19.20;99.90;;;;;;5027937;28;20198;-79
2021/09/16 09:13:14;;;;;;;4.90;3.70;;;19.30;99.90;;;;;;5051583;28;20178;-79
2021/09/16 09:15:42;;;;;;;4.00;3.70;;;19.30;99.90;;;;;;5035150;28;20240;-80
2021/09/16 09:18:12;;;;;;;4.23;3.60;;;19.40;99.90;;;;;;5037627;28;20253;-79
2021/09/16 09:21:03;;;;;;;3.93;3.50;;;19.40;99.90;;;;;;5039198;28;20185;-80
2021/09/16 09:23:43;;;;;;;4.97;3.80;;;19.40;99.90;;;;;;5037247;28;20190;-80
2021/09/16 09:26:24;;;;;;;3.97;3.67;;;19.40;99.90;;;;;;5040012;28;20598;-80
2021/09/16 09:28:51;;;;;;;3.83;3.50;;;19.40;99.90;;;;;;5048268;28;20173;-80
2021/09/16 09:31:20;;;;;;;4.30;3.90;;;19.50;99.90;;;;;;5045623;28;20225;-80
2021/09/16 09:33:46;;;;;;;4.00;3.70;;;19.50;99.90;;;;;;5039298;28;20176;-80
2021/09/16 09:36:14;;;;;;;4.97;3.57;;;19.60;99.90;;;;;;5038975;28;20198;-80
2021/09/16 09:38:52;;;;;;;3.60;3.30;;;19.60;99.90;;;;;;5038314;28;20173;-80
2021/09/16 09:41:23;;;;;;;3.67;3.23;;;19.50;99.90;;;;;;5038510;28;20181;-80
2021/09/16 09:43:49;;;;;;;4.73;3.37;;;19.60;99.90;;;;;;5021046;28;20198;-80
2021/09/16 09:46:17;;;;;;;3.80;3.33;;;19.60;99.90;;;;;;5031673;28;20198;-79
2021/09/16 09:48:44;;;;;;;6.17;3.63;;;19.50;99.90;;;;;;5039390;28;20688;-80
2021/09/16 09:51:12;;;;;;;4.73;3.60;;;19.50;99.90;;;;;;5040827;28;20204;-80
2021/09/16 09:53:45;;;;;;;5.63;3.43;;;19.60;99.90;;;;;;5040971;28;20206;-80
2021/09/16 09:56:16;;;;;;;3.60;3.30;;;19.60;99.90;;;;;;5040277;28;20193;-80
2021/09/16 09:58:42;;;;;;;3.80;3.50;;;19.70;99.90;;;;;;5041790;28;20206;-79
2021/09/16 10:01:27;;;;;;;4.30;3.47;;;19.70;99.90;;;;;;5052552;28;20188;-80
2021/09/16 10:03:53;;;;;;;4.47;3.40;;;19.70;99.90;;;;;;5038510;28;20185;-80
2021/09/16 10:06:19;;;;;;;4.60;3.30;;;19.90;99.90;;;;;;5040097;28;20198;-79
2021/09/16 10:09:08;;;;;;;3.57;2.93;;;19.90;99.90;;;;;;5040365;28;20235;-80
2021/09/16 10:11:39;;;;;;;3.50;3.20;;;20.00;99.90;;;;;;5040798;28;20194;-80
2021/09/16 10:14:06;;;;;;;4.83;2.83;;;20.00;99.90;;;;;;5037314;28;20542;-80
2021/09/16 10:16:31;;;;;;;2.80;2.40;;;20.10;99.90;;;;;;5038846;28;20195;-80
2021/09/16 10:18:57;;;;;;;3.27;2.80;;;20.10;99.90;;;;;;5036725;28;20178;-80
2021/09/16 10:21:23;;;;;;;2.77;2.43;;;20.20;99.90;;;;;;5037909;28;20229;-80
2021/09/16 10:23:54;;;;;;;2.97;2.43;;;20.20;99.90;;;;;;5038337;28;20669;-80
2021/09/16 10:26:37;;;;;;;2.23;2.03;;;20.20;99.90;;;;;;5037948;28;20213;-79
2021/09/16 10:29:26;;;;;;;2.60;2.40;;;20.30;99.90;;;;;;5039232;28;20174;-80
2021/09/16 10:32:12;;;;;;;2.70;2.23;;;20.40;99.90;;;;;;5036013;28;20201;-80
2021/09/16 10:34:44;;;;;;;2.70;2.20;;;20.60;99.90;;;;;;5035551;28;20178;-79
2021/09/16 10:37:20;;;;;;;2.27;1.23;;;20.60;99.90;;;;;;5034873;28;20181;-79
2021/09/16 10:39:47;;;;;;;0.57;0.57;;;20.60;99.90;;;;;;5033967;28;20261;-80
2021/09/16 10:42:14;;;;;;;1.00;0.50;;;20.60;99.90;;;;;;5036962;28;20743;-80
2021/09/16 10:44:40;;;;;;;0.43;0.43;;;20.50;99.90;;;;;;5033883;28;20183;-80
2021/09/16 10:47:23;;;;;;;0.60;0.50;;;20.40;99.90;;;;;;5034916;28;20166;-80
2021/09/16 10:49:51;;;;;;;0.40;0.20;;;20.30;99.90;;;;;;5039859;28;20677;-80
2021/09/16 10:52:24;;;;;;;0.67;0.30;;;20.20;99.90;;;;;;5039347;28;20175;-80
2021/09/16 10:54:54;;;;;;;1.50;0.37;;;20.00;99.90;;;;;;5037075;28;20229;-80
2021/09/16 10:57:28;;;;;;;1.30;0.20;;;19.80;99.90;;;;;;5038919;28;20178;-80
2021/09/16 10:59:53;;;;;;;0.20;0.20;;;19.60;99.90;;;;;;5037209;28;20184;-80
2021/09/16 11:02:21;;;;;;;2.30;0.40;;;19.50;99.90;;;;;;5047041;28;20182;-80
2021/09/16 11:04:56;;;;;;;0.43;0.10;;;19.40;99.90;;;;;;5036402;28;20301;-80
2021/09/16 11:07:34;;;;;;;0.90;0.10;;;19.30;99.90;;;;;;5035463;28;20180;-79
2021/09/16 11:10:14;;;;;;;0.40;0.10;;;19.30;99.90;;;;;;5031954;28;20309;-79
2021/09/16 11:12:50;;;;;;;0.40;0.17;;;19.30;99.90;;;;;;5037934;28;20215;-80
2021/09/16 11:15:17;;;;;;;0.50;0.10;;;19.30;99.90;;;;;;5043178;28;20249;-79
2021/09/16 11:17:44;;;;;;;0.50;0.20;;;19.30;99.90;;;;;;5034559;28;20588;-79
2021/09/16 11:20:13;;;;;;;0.30;0.20;;;19.30;99.90;;;;;;5034608;28;20174;-80
2021/09/16 11:22:39;;;;;;;0.63;0.30;;;19.30;99.90;;;;;;5034676;28;20201;-79
2021/09/16 11:25:07;;;;;;;0.60;0.30;;;19.30;99.90;;;;;;5038552;28;20266;-80
2021/09/16 11:27:39;;;;;;;0.13;0.13;;;19.30;99.90;;;;;;5060082;22;20244;-83
2021/09/16 11:30:12;;;;;;;0.67;0.20;;;19.30;99.90;;;;;;5039925;28;20711;-82
2021/09/16 11:32:40;;;;;;;0.40;0.20;;;19.30;99.90;;;;;;5040784;28;20185;-83
2021/09/16 11:35:18;;;;;;;1.87;0.23;;;19.30;99.90;;;;;;5040872;28;20178;-82
2021/09/16 11:37:45;;;;;;;0.87;0.30;;;19.30;99.90;;;;;;5020340;28;20711;-82
2021/09/16 11:40:15;;;;;;;0.50;0.20;;;19.30;99.90;;;;;;5017809;28;20194;-81
2021/09/16 11:42:44;;;;;;;0.93;0.30;;;19.30;99.90;;;;;;5018808;28;20228;-81
2021/09/16 11:45:12;;;;;;;0.93;0.30;;;19.30;99.90;;;;;;5017765;28;20557;-82
2021/09/16 11:47:49;;;;;;;8.33;0.40;;;19.30;99.90;;;;;;5018183;28;20273;-82
2021/09/16 11:50:26;;;;;;;1.80;0.30;;;19.30;99.90;;;;;;5020555;28;20193;-82
2021/09/16 11:53:05;;;;;;;0.50;0.40;;;19.30;99.90;;;;;;5012908;28;20190;-83
2021/09/16 11:55:36;;;;;;;0.57;0.30;;;19.40;99.90;;;;;;5007335;28;20183;-85
2021/09/16 11:58:04;;;;;;;0.30;0.20;;;19.30;99.90;;;;;;5014192;28;20555;-84
2021/09/16 12:00:59;;;;;;;0.80;0.20;;;19.40;99.90;;;;;;5015916;28;20183;-84
2021/09/16 12:03:27;;;;;;;0.40;0.20;;;19.40;99.90;;;;;;5006794;28;20206;-84
2021/09/16 12:05:55;;;;;;;0.23;0.20;;;19.40;99.90;;;;;;5011069;28;20564;-84
2021/09/16 12:08:24;;;;;;;0.43;0.27;;;19.40;99.90;;;;;;5006880;28;20214;-84
2021/09/16 12:11:08;;;;;;;0.50;0.30;;;19.50;99.90;;;;;;5011382;28;20203;-84
2021/09/16 12:13:38;;;;;;;1.57;0.30;;;19.50;99.90;;;;;;5010237;28;20229;-84
2021/09/16 12:16:13;;;;;;;0.60;0.30;;;19.40;99.90;;;;;;5013512;28;20195;-84
2021/09/16 12:18:45;;;;;;;0.37;0.37;;;19.40;99.90;;;;;;5013915;28;20201;-84
2021/09/16 12:21:17;;;;;;;0.40;0.40;;;19.40;99.90;;;;;;5011862;28;20214;-84
2021/09/16 12:23:50;;;;;;;0.63;0.40;;;19.50;99.90;;;;;;5022142;28;20188;-84
2021/09/16 12:26:19;;;;;;;0.40;0.40;;;19.50;99.90;;;;;;5014047;28;20229;-84
2021/09/16 12:28:54;;;;;;;1.10;0.40;;;19.50;99.90;;;;;;5014503;28;20180;-85
2021/09/16 12:31:31;;;;;;;1.80;0.40;;;19.60;99.90;;;;;;5012109;28;20214;-84
2021/09/16 12:34:06;;;;;;;1.43;0.60;;;19.60;99.90;;;;;;5010954;28;20649;-84
2021/09/16 12:36:33;;;;;;;0.70;0.70;;;19.60;99.90;;;;;;5011710;28;20186;-84